createdAt,value
2022-08-22T00:01:13.003Z,99.9
2022-08-22T00:03:07.734Z,99.9
2022-08-22T00:03:18.190Z,99.9
2022-08-22T00:05:17.075Z,99.9
2022-08-22T00:07:19.184Z,99.9
2022-08-22T00:11:23.194Z,99.9
2022-08-22T00:13:28.268Z,99.9
2022-08-22T00:15:42.021Z,99.9
2022-08-22T00:17:32.314Z,99.9
2022-08-22T00:21:36.390Z,99.9
2022-08-22T00:23:38.421Z,99.9
2022-08-22T00:25:40.450Z,99.9
2022-08-22T00:27:45.530Z,99.9
2022-08-22T00:29:47.580Z,99.9
2022-08-22T00:32:52.161Z,99.9
2022-08-22T00:34:54.201Z,99.9
2022-08-22T00:36:56.215Z,99.9
2022-08-22T00:38:58.238Z,99.9
2022-08-22T00:41:03.359Z,99.9
2022-08-22T00:43:05.390Z,99.9
2022-08-22T00:45:07.403Z,99.9
2022-08-22T00:53:15.546Z,99.9
2022-08-22T00:55:22.161Z,99.9
2022-08-22T00:57:24.147Z,99.9
2022-08-22T00:59:26.167Z,99.9
2022-08-22T01:09:39.826Z,99.9
2022-08-22T01:11:41.841Z,99.9
2022-08-22T01:15:45.916Z,99.9
2022-08-22T01:17:47.922Z,99.9
2022-08-22T01:19:49.968Z,99.9
2022-08-22T01:21:51.998Z,99.9
2022-08-22T01:23:57.102Z,99.9
2022-08-22T01:25:59.133Z,99.9
2022-08-22T01:28:01.175Z,99.9
2022-08-22T01:30:23.689Z,99.9
2022-08-22T01:32:25.725Z,99.9
2022-08-22T01:34:27.746Z,99.9
2022-08-22T01:36:32.860Z,99.9
2022-08-22T01:38:34.892Z,99.9
2022-08-22T01:40:36.900Z,99.9
2022-08-22T01:42:38.927Z,99.9
2022-08-22T01:44:40.980Z,99.9
2022-08-22T01:46:43.004Z,99.9
2022-08-22T01:48:45.032Z,99.9
2022-08-22T01:50:50.125Z,99.9
2022-08-22T01:52:52.155Z,99.9
2022-08-22T01:56:56.199Z,99.9
2022-08-22T01:58:58.664Z,99.9
2022-08-22T02:05:07.822Z,99.9
2022-08-22T02:13:15.942Z,99.9
2022-08-22T02:15:17.981Z,99.9
2022-08-22T02:21:27.145Z,99.9
2022-08-22T02:23:29.175Z,99.9
2022-08-22T02:24:31.727Z,99.9
2022-08-22T02:26:33.741Z,99.9
2022-08-22T02:28:35.766Z,99.9
2022-08-22T02:30:37.817Z,99.9
2022-08-22T02:36:46.966Z,99.9
2022-08-22T02:38:49.015Z,99.9
2022-08-22T02:40:51.054Z,99.9
2022-08-22T02:42:53.071Z,99.9
2022-08-22T02:44:55.096Z,99.9
2022-08-22T02:47:00.205Z,99.9
2022-08-22T02:49:02.232Z,99.9
2022-08-22T02:51:25.031Z,99.9
2022-08-22T02:53:06.294Z,99.9
2022-08-22T02:55:08.316Z,99.9
2022-08-22T02:57:14.123Z,99.9
2022-08-22T02:59:12.374Z,99.9
2022-08-22T03:01:17.592Z,99.9
2022-08-22T03:03:19.490Z,99.9
2022-08-22T03:05:21.529Z,99.9
2022-08-22T03:07:23.568Z,99.9
2022-08-22T03:11:27.631Z,99.9
2022-08-22T03:13:29.652Z,99.9
2022-08-22T03:15:34.743Z,99.9
2022-08-22T03:17:36.779Z,99.9
2022-08-22T03:19:38.816Z,99.9
2022-08-22T03:20:41.358Z,99.9
2022-08-22T03:22:43.396Z,99.9
2022-08-22T03:24:45.437Z,99.9
2022-08-22T03:26:47.467Z,99.9
2022-08-22T03:28:59.110Z,99.9
2022-08-22T03:30:54.598Z,99.9
2022-08-22T03:32:56.621Z,99.9
2022-08-22T03:34:58.643Z,99.9
2022-08-22T03:37:00.674Z,99.9
2022-08-22T03:39:02.707Z,99.9
2022-08-22T03:49:15.935Z,99.9
2022-08-22T03:51:17.985Z,99.9
2022-08-22T03:53:20.012Z,99.9
2022-08-22T03:55:22.051Z,99.9
2022-08-22T03:57:27.162Z,99.9
2022-08-22T03:59:29.197Z,99.9
2022-08-22T04:01:31.394Z,99.9
2022-08-22T04:03:33.238Z,99.9
2022-08-22T04:05:35.279Z,99.9
2022-08-22T04:07:37.323Z,99.9
2022-08-22T04:09:39.344Z,99.9
2022-08-22T04:11:44.448Z,99.9
2022-08-22T04:13:46.465Z,99.9
2022-08-22T04:20:55.118Z,99.9
2022-08-22T04:22:57.157Z,99.9
2022-08-22T04:25:07.150Z,99.9
2022-08-22T04:29:06.296Z,99.9
2022-08-22T04:31:08.351Z,99.9
2022-08-22T04:33:10.378Z,99.9
2022-08-22T04:35:12.415Z,99.9
2022-08-22T04:39:19.533Z,99.9
2022-08-22T04:41:21.559Z,99.9
2022-08-22T04:43:23.606Z,99.9
2022-08-22T04:47:27.663Z,99.9
2022-08-22T04:49:29.696Z,99.9
2022-08-22T04:51:31.748Z,99.9
2022-08-22T04:53:36.840Z,99.9
2022-08-22T04:55:38.883Z,99.9
2022-08-22T04:57:40.951Z,99.9
2022-08-22T04:59:42.939Z,99.9
2022-08-22T05:01:45.007Z,99.9
2022-08-22T05:03:47.007Z,99.9
2022-08-22T05:05:49.027Z,99.9
2022-08-22T05:07:54.149Z,99.9
2022-08-22T05:09:56.179Z,99.9
2022-08-22T05:11:58.200Z,99.9
2022-08-22T05:14:20.969Z,99.9
2022-08-22T05:18:25.554Z,99.9
2022-08-22T05:20:30.170Z,99.9
2022-08-22T05:22:32.181Z,99.9
2022-08-22T05:24:34.203Z,99.9
2022-08-22T05:26:36.341Z,99.9
2022-08-22T05:28:38.284Z,99.9
2022-08-22T05:30:40.309Z,99.9
2022-08-22T05:32:42.350Z,99.9
2022-08-22T05:34:47.437Z,99.9
2022-08-22T05:36:49.478Z,99.9
2022-08-22T05:38:51.520Z,99.9
2022-08-22T05:40:53.536Z,99.9
2022-08-22T05:42:55.586Z,99.9
2022-08-22T05:44:57.608Z,99.9
2022-08-22T05:46:59.659Z,99.9
2022-08-22T05:49:04.764Z,99.9
2022-08-22T05:51:06.802Z,99.9
2022-08-22T05:53:08.830Z,99.9
2022-08-22T05:59:14.940Z,99.9
2022-08-22T06:01:17.069Z,99.9
2022-08-22T06:03:22.080Z,99.9
2022-08-22T06:05:24.112Z,99.9
2022-08-22T06:07:26.129Z,99.9
2022-08-22T06:08:28.685Z,99.9
2022-08-22T06:10:30.733Z,99.9
2022-08-22T06:12:32.751Z,99.9
2022-08-22T06:14:34.809Z,99.9
2022-08-22T06:16:39.912Z,99.9
2022-08-22T06:18:41.928Z,99.9
2022-08-22T06:20:43.956Z,99.9
2022-08-22T06:22:46.037Z,99.9
2022-08-22T06:24:48.068Z,99.9
2022-08-22T06:26:50.101Z,99.9
2022-08-22T06:28:54.646Z,99.9
2022-08-22T06:30:57.232Z,99.9
2022-08-22T06:33:01.021Z,99.9
2022-08-22T06:35:01.311Z,99.9
2022-08-22T06:39:05.379Z,99.9
2022-08-22T06:41:07.405Z,99.9
2022-08-22T06:43:09.411Z,99.9
2022-08-22T06:45:14.507Z,99.9
2022-08-22T06:47:18.054Z,99.9
2022-08-22T06:49:20.084Z,99.9
2022-08-22T06:55:26.103Z,99.9
2022-08-22T06:57:28.124Z,99.9
2022-08-22T06:59:33.220Z,99.9
2022-08-22T07:01:35.335Z,99.9
2022-08-22T07:03:37.251Z,99.9
2022-08-22T07:06:41.826Z,99.9
2022-08-22T07:08:43.872Z,99.9
2022-08-22T07:10:45.865Z,99.9
2022-08-22T07:14:52.930Z,99.9
2022-08-22T07:18:56.949Z,99.9
2022-08-22T07:20:58.952Z,99.9
2022-08-22T07:23:00.959Z,99.9
2022-08-22T07:27:08.028Z,99.9
2022-08-22T07:29:11.353Z,99.9
2022-08-22T07:31:12.031Z,99.9
2022-08-22T07:33:25.742Z,99.9
2022-08-22T07:35:16.016Z,99.9
2022-08-22T07:37:18.003Z,99.9
2022-08-22T07:39:21.486Z,99.9
2022-08-22T07:41:25.061Z,99.9
2022-08-22T07:43:27.100Z,99.9
2022-08-22T07:45:29.044Z,99.9
2022-08-22T07:47:31.017Z,99.9
2022-08-22T07:49:33.001Z,99.9
2022-08-22T07:51:34.993Z,99.9
2022-08-22T07:53:36.957Z,99.9
2022-08-22T07:55:49.271Z,99.9
2022-08-22T07:57:44.011Z,99.9
2022-08-22T07:59:45.991Z,92.2
2022-08-22T08:00:48.522Z,92.5
2022-08-22T08:02:50.476Z,92.6
2022-08-22T08:04:52.478Z,98.5
2022-08-22T08:06:54.440Z,97.6
2022-08-22T08:08:59.498Z,80.4
2022-08-22T08:11:01.467Z,70.1
2022-08-22T08:13:03.436Z,70.6
2022-08-22T08:15:05.411Z,72.6
2022-08-22T08:17:07.392Z,69.6
2022-08-22T08:19:09.328Z,70.1
2022-08-22T08:21:11.311Z,69.8
2022-08-22T08:25:18.308Z,61.3
2022-08-22T08:27:20.278Z,61
2022-08-22T08:31:24.187Z,61.3
2022-08-22T08:33:26.854Z,61.4
2022-08-22T08:35:28.061Z,61.6
2022-08-22T08:37:33.090Z,60.3
2022-08-22T08:39:35.627Z,60.4
2022-08-22T08:41:36.990Z,60.3
2022-08-22T08:43:38.922Z,60.3
2022-08-22T08:45:40.870Z,60.1
2022-08-22T08:47:42.780Z,60.3
2022-08-22T08:51:49.798Z,60.4
2022-08-22T08:53:51.666Z,60.5
2022-08-22T08:55:53.565Z,60.8
2022-08-22T09:00:18.316Z,60.2
2022-08-22T09:02:20.690Z,59.8
2022-08-22T09:06:27.170Z,59.2
2022-08-22T09:08:29.106Z,59.4
2022-08-22T09:10:31.008Z,59.7
2022-08-22T09:12:32.932Z,59.6
2022-08-22T09:14:34.863Z,59.6
2022-08-22T09:16:36.748Z,59.5
2022-08-22T09:18:41.778Z,60.3
2022-08-22T09:20:43.681Z,60.4
2022-08-22T09:22:50.863Z,60.5
2022-08-22T09:24:47.501Z,59.3
2022-08-22T09:26:49.423Z,59.1
2022-08-22T09:28:51.326Z,58.6
2022-08-22T09:30:54.140Z,58.2
2022-08-22T09:32:58.271Z,57.7
2022-08-22T09:35:00.180Z,57.6
2022-08-22T09:39:03.982Z,57.2
2022-08-22T09:41:05.900Z,56.9
2022-08-22T09:43:07.803Z,56.6
2022-08-22T09:45:09.709Z,56.1
2022-08-22T09:47:14.724Z,55.6
2022-08-22T09:49:16.629Z,55.4
2022-08-22T09:52:34.019Z,54.6
2022-08-22T09:54:22.948Z,54.5
2022-08-22T09:56:26.115Z,54.3
2022-08-22T09:58:27.921Z,53.4
2022-08-22T10:00:31.738Z,53
2022-08-22T10:02:33.642Z,52.8
2022-08-22T10:04:35.514Z,52.7
2022-08-22T10:06:37.419Z,52.6
2022-08-22T10:10:41.205Z,52.4
2022-08-22T10:16:49.946Z,50.6
2022-08-22T10:18:53.875Z,49.8
2022-08-22T10:20:53.697Z,49.4
2022-08-22T10:22:55.594Z,49.2
2022-08-22T10:24:58.621Z,49
2022-08-22T10:26:59.307Z,48.9
2022-08-22T10:29:04.282Z,48.9
2022-08-22T10:31:06.478Z,48.9
2022-08-22T10:33:08.016Z,49
2022-08-22T10:35:09.881Z,49
2022-08-22T10:39:13.583Z,48.7
2022-08-22T10:41:15.433Z,48.7
2022-08-22T10:45:24.045Z,48.7
2022-08-22T10:48:26.592Z,46.6
2022-08-22T10:50:31.129Z,46.2
2022-08-22T10:52:30.287Z,46
2022-08-22T10:54:32.097Z,46
2022-08-22T10:56:37.028Z,46.3
2022-08-22T10:58:38.868Z,46.2
2022-08-22T11:00:46.073Z,45.2
2022-08-22T11:02:44.890Z,45.2
2022-08-22T11:04:44.479Z,44.9
2022-08-22T11:06:46.210Z,44.8
2022-08-22T11:08:48.018Z,44.8
2022-08-22T11:10:52.986Z,45.3
2022-08-22T11:12:54.809Z,45.3
2022-08-22T11:14:56.601Z,45.3
2022-08-22T11:16:58.431Z,45.3
2022-08-22T11:19:04.938Z,45
2022-08-22T11:21:02.076Z,45.1
2022-08-22T11:23:03.896Z,45.1
2022-08-22T11:25:08.820Z,45.5
2022-08-22T11:29:14.143Z,45.8
2022-08-22T11:31:14.271Z,44.5
2022-08-22T11:37:19.688Z,41.1
2022-08-22T11:39:24.614Z,41.2
2022-08-22T11:41:26.418Z,41.5
2022-08-22T11:43:28.209Z,42.4
2022-08-22T11:46:32.496Z,43
2022-08-22T11:48:34.273Z,42.1
2022-08-22T11:50:36.101Z,41.7
2022-08-22T11:52:40.966Z,41.1
2022-08-22T11:54:42.792Z,41.2
2022-08-22T11:58:46.357Z,41.1
2022-08-22T12:00:48.173Z,40.8
2022-08-22T12:02:49.946Z,40.5
2022-08-22T12:04:51.722Z,40.1
2022-08-22T12:06:56.609Z,39.1
2022-08-22T12:08:58.407Z,38.9
2022-08-22T12:11:00.165Z,38.6
2022-08-22T12:13:01.947Z,38
2022-08-22T12:15:03.701Z,37.6
2022-08-22T12:17:05.457Z,37.5
2022-08-22T12:19:07.231Z,37.9
2022-08-22T12:21:12.076Z,38.7
2022-08-22T12:25:15.593Z,38.7
2022-08-22T12:27:18.313Z,38.7
2022-08-22T12:31:20.838Z,37.8
2022-08-22T12:33:23.193Z,37.3
2022-08-22T12:35:30.349Z,36.5
2022-08-22T12:37:29.134Z,35.6
2022-08-22T12:39:32.374Z,35.3
2022-08-22T12:41:54.708Z,35.3
2022-08-22T12:43:56.423Z,35.4
2022-08-22T12:45:58.116Z,35.7
2022-08-22T12:48:02.947Z,36.6
2022-08-22T12:50:04.636Z,36.7
2022-08-22T12:52:06.363Z,36.8
2022-08-22T12:54:08.521Z,36.9
2022-08-22T12:56:10.197Z,37
2022-08-22T12:58:11.425Z,37
2022-08-22T13:02:17.979Z,37
2022-08-22T13:04:33.141Z,37.1
2022-08-22T13:06:21.357Z,37.1
2022-08-22T13:08:23.050Z,37.2
2022-08-22T13:10:24.758Z,37.4
2022-08-22T13:12:26.449Z,37.5
2022-08-22T13:16:32.974Z,37.5
2022-08-22T13:18:35.781Z,37.4
2022-08-22T13:20:36.384Z,37.3
2022-08-22T13:22:38.858Z,37.4
2022-08-22T13:24:39.841Z,37.4
2022-08-22T13:26:43.911Z,37.2
2022-08-22T13:28:43.216Z,37.3
2022-08-22T13:30:48.268Z,37.8
2022-08-22T13:32:49.747Z,38.1
2022-08-22T13:34:51.424Z,38.7
2022-08-22T13:37:55.626Z,39.2
2022-08-22T13:39:57.317Z,39.3
2022-08-22T13:41:59.007Z,39.4
2022-08-22T13:44:03.799Z,39.6
2022-08-22T13:46:05.524Z,39.6
2022-08-22T13:48:08.736Z,39.5
2022-08-22T13:50:09.020Z,39.1
2022-08-22T13:52:29.394Z,38.8
2022-08-22T13:54:12.339Z,38.7
2022-08-22T13:56:16.006Z,38.7
2022-08-22T13:58:18.869Z,39.6
2022-08-22T14:00:28.686Z,40.3
2022-08-22T14:02:22.376Z,40.7
2022-08-22T14:04:32.199Z,41
2022-08-22T14:06:35.523Z,41.3
2022-08-22T14:08:27.470Z,41.4
2022-08-22T14:10:29.206Z,41.5
2022-08-22T14:12:35.650Z,40.8
2022-08-22T14:14:35.785Z,40.4
2022-08-22T14:16:37.513Z,40.2
2022-08-22T14:18:45.417Z,39.9
2022-08-22T14:20:40.979Z,39.4
2022-08-22T14:31:55.168Z,39.1
2022-08-22T14:33:56.913Z,38.5
2022-08-22T14:35:58.646Z,38.3
2022-08-22T14:38:00.528Z,38
2022-08-22T14:40:05.344Z,37.9
2022-08-22T14:42:09.963Z,38.1
2022-08-22T14:44:08.716Z,39.2
2022-08-22T14:46:10.490Z,39.4
2022-08-22T14:48:31.620Z,39.9
2022-08-22T14:50:13.950Z,40.5
2022-08-22T14:52:19.695Z,40.9
2022-08-22T14:54:21.394Z,40.5
2022-08-22T14:56:22.335Z,40.2
2022-08-22T14:58:26.222Z,39.7
2022-08-22T15:00:25.854Z,39.2
2022-08-22T15:02:27.676Z,38.7
2022-08-22T15:04:29.385Z,38.6
2022-08-22T15:06:31.152Z,38.6
2022-08-22T15:08:36.024Z,38.4
2022-08-22T15:10:41.861Z,38.4
2022-08-22T15:12:39.546Z,38.3
2022-08-22T15:14:41.287Z,38.2
2022-08-22T15:16:43.080Z,38.2
2022-08-22T15:18:51.607Z,38.5
2022-08-22T15:20:49.214Z,38.8
2022-08-22T15:22:51.499Z,39.4
2022-08-22T15:24:53.271Z,39.7
2022-08-22T15:26:55.451Z,39.7
2022-08-22T15:27:57.503Z,39.6
2022-08-22T15:29:59.271Z,39.4
2022-08-22T15:32:01.057Z,39.3
2022-08-22T15:38:11.502Z,39.4
2022-08-22T15:40:12.007Z,39.6
2022-08-22T15:44:32.233Z,40.1
2022-08-22T15:46:18.085Z,40.2
2022-08-22T15:48:18.444Z,39.6
2022-08-22T15:50:23.301Z,38.5
2022-08-22T15:52:25.896Z,38.2
2022-08-22T15:56:28.496Z,37.8
2022-08-22T15:58:30.205Z,37.6
2022-08-22T16:00:31.895Z,37.8
2022-08-22T16:02:34.944Z,37.6
2022-08-22T16:04:38.368Z,37.1
2022-08-22T16:06:39.994Z,36.9
2022-08-22T16:08:41.620Z,36.9
2022-08-22T16:10:43.266Z,36.8
2022-08-22T16:12:44.887Z,37
2022-08-22T16:14:46.469Z,37.3
2022-08-22T16:16:48.089Z,37.6
2022-08-22T16:18:52.854Z,37.9
2022-08-22T16:20:54.459Z,37.8
2022-08-22T16:22:56.053Z,37.5
2022-08-22T16:25:18.293Z,36.9
2022-08-22T16:27:19.893Z,36.5
2022-08-22T16:29:21.496Z,36.2
2022-08-22T16:31:26.211Z,36.1
2022-08-22T16:33:27.796Z,36.2
2022-08-22T16:35:29.389Z,36
2022-08-22T16:37:30.985Z,36.1
2022-08-22T16:39:32.570Z,36.3
2022-08-22T16:41:34.143Z,36.3
2022-08-22T16:43:35.740Z,36.3
2022-08-22T16:45:40.515Z,36.3
2022-08-22T16:47:42.119Z,36.2
2022-08-22T16:49:43.688Z,36.1
2022-08-22T16:51:45.314Z,36.1
2022-08-22T16:53:46.869Z,36.1
2022-08-22T16:55:48.477Z,35.9
2022-08-22T16:58:05.384Z,35.7
2022-08-22T16:59:54.795Z,35.4
2022-08-22T17:01:56.436Z,35.1
2022-08-22T17:03:57.995Z,34.8
2022-08-22T17:05:59.775Z,34.7
2022-08-22T17:08:01.488Z,34.9
2022-08-22T17:10:02.859Z,34.9
2022-08-22T17:14:09.214Z,35.7
2022-08-22T17:16:10.831Z,36.2
2022-08-22T17:18:12.482Z,36.1
2022-08-22T17:19:14.817Z,35.9
2022-08-22T17:21:16.465Z,35.2
2022-08-22T17:23:18.093Z,34.8
2022-08-22T17:25:19.758Z,34
2022-08-22T17:31:27.781Z,32.8
2022-08-22T17:33:29.421Z,32.7
2022-08-22T17:35:32.806Z,32.8
2022-08-22T17:41:39.154Z,36.3
2022-08-22T17:43:49.257Z,36.9
2022-08-22T17:45:42.473Z,37.1
2022-08-22T17:47:44.138Z,37.5
2022-08-22T17:49:45.817Z,37.5
2022-08-22T17:51:47.492Z,37.9
2022-08-22T17:53:49.188Z,38.1
2022-08-22T17:55:53.962Z,38.6
2022-08-22T18:01:59.078Z,40.7
2022-08-22T18:04:00.792Z,41
2022-08-22T18:06:02.520Z,41.6
2022-08-22T18:08:04.231Z,43.2
2022-08-22T18:10:09.135Z,45
2022-08-22T18:12:10.877Z,45.9
2022-08-22T18:14:12.644Z,46.4
2022-08-22T18:15:15.106Z,46.7
2022-08-22T18:17:16.910Z,47.2
2022-08-22T18:19:18.693Z,47.6
2022-08-22T18:21:20.677Z,48
2022-08-22T18:23:36.096Z,48.7
2022-08-22T18:25:27.307Z,49.1
2022-08-22T18:27:34.138Z,49.5
2022-08-22T18:29:32.481Z,49.8
2022-08-22T18:31:38.195Z,50
2022-08-22T18:33:36.102Z,50.3
2022-08-22T18:35:37.972Z,50.6
2022-08-22T18:37:42.921Z,51.1
2022-08-22T18:39:44.854Z,51.4
2022-08-22T18:41:46.798Z,51.8
2022-08-22T18:43:48.545Z,52
2022-08-22T18:45:50.450Z,52.2
2022-08-22T18:47:52.353Z,52.5
2022-08-22T18:49:54.296Z,52.7
2022-08-22T18:51:59.238Z,53.3
2022-08-22T18:54:01.126Z,53.6
2022-08-22T18:56:03.029Z,53.9
2022-08-22T18:58:04.991Z,54.4
2022-08-22T19:00:06.862Z,54.7
2022-08-22T19:02:08.763Z,55
2022-08-22T19:04:10.671Z,55.2
2022-08-22T19:06:15.672Z,55.9
2022-08-22T19:08:17.602Z,56
2022-08-22T19:10:19.537Z,56.2
2022-08-22T19:17:27.840Z,58.2
2022-08-22T19:23:36.727Z,61.1
2022-08-22T19:25:38.692Z,62.2
2022-08-22T19:27:40.607Z,63.6
2022-08-22T19:29:42.551Z,64.3
2022-08-22T19:31:44.490Z,65.4
2022-08-22T19:33:49.530Z,68.8
2022-08-22T19:35:51.461Z,70
2022-08-22T19:37:53.436Z,76.4
2022-08-22T19:39:55.448Z,77.1
2022-08-22T19:41:57.360Z,78.1
2022-08-22T19:43:59.282Z,89.5
2022-08-22T19:46:01.214Z,88.8
2022-08-22T19:48:09.459Z,91.3
2022-08-22T19:50:08.230Z,90.9
2022-08-22T19:52:10.411Z,91.3
2022-08-22T19:54:16.230Z,93.2
2022-08-22T19:56:14.139Z,96.6
2022-08-22T19:58:16.088Z,97.4
2022-08-22T20:00:18.053Z,98.4
2022-08-22T20:02:23.145Z,99.2
2022-08-22T20:04:25.083Z,99.6
2022-08-22T20:06:43.137Z,99.6
2022-08-22T20:10:51.705Z,99.9
2022-08-22T20:12:53.681Z,99.9
2022-08-22T20:14:58.745Z,99.9
2022-08-22T20:19:07.913Z,99.9
2022-08-22T20:21:04.675Z,99.9
2022-08-22T20:23:06.669Z,99.9
2022-08-22T20:25:17.193Z,99.9
2022-08-22T20:29:15.707Z,99.9
2022-08-22T20:33:19.684Z,99.9
2022-08-22T20:35:21.723Z,99.9
2022-08-22T20:45:34.739Z,99.9
2022-08-22T20:47:41.204Z,99.9
2022-08-22T20:49:38.694Z,99.9
2022-08-22T20:51:40.659Z,99.9
2022-08-22T20:53:42.670Z,99.9
2022-08-22T20:55:44.729Z,99.9
2022-08-22T20:57:55.542Z,99.9
2022-08-22T20:59:51.745Z,99.9
2022-08-22T21:01:53.724Z,99.9
2022-08-22T21:04:58.265Z,99.9
2022-08-22T21:07:00.259Z,99.9
2022-08-22T21:13:09.354Z,99.9
2022-08-22T21:15:11.339Z,99.9
2022-08-22T21:23:19.366Z,99.9
2022-08-22T21:31:30.502Z,99.9
2022-08-22T21:33:32.500Z,99.9
2022-08-22T21:35:34.526Z,99.9
2022-08-22T21:37:36.522Z,99.9
2022-08-22T21:39:41.667Z,99.9
2022-08-22T21:41:43.639Z,99.9
2022-08-22T21:43:48.223Z,99.9
2022-08-22T21:45:47.663Z,99.9
2022-08-22T21:47:49.677Z,99.9
2022-08-22T21:49:51.691Z,99.9
2022-08-22T21:51:53.701Z,99.9
2022-08-22T21:54:18.255Z,99.9
2022-08-22T21:56:00.651Z,99.9
2022-08-22T21:58:02.697Z,99.9
2022-08-22T21:59:05.221Z,99.9
2022-08-22T22:01:07.333Z,99.9
2022-08-22T22:03:09.277Z,99.9
2022-08-22T22:05:11.671Z,99.9
2022-08-22T22:07:16.437Z,99.9
2022-08-22T22:09:18.434Z,99.9
2022-08-22T22:11:20.546Z,99.9
2022-08-22T22:13:23.897Z,99.9
2022-08-22T22:15:24.549Z,99.9
2022-08-22T22:17:26.545Z,99.9
2022-08-22T22:19:28.561Z,99.9
2022-08-22T22:21:33.680Z,99.9
2022-08-22T22:23:35.703Z,99.9
2022-08-22T22:25:38.810Z,99.9
2022-08-22T22:27:39.772Z,99.9
2022-08-22T22:29:41.789Z,99.9
2022-08-22T22:31:43.830Z,99.9
2022-08-22T22:33:45.853Z,99.9
2022-08-22T22:35:50.959Z,99.9
2022-08-22T22:37:53.133Z,99.9
2022-08-22T22:39:55.111Z,99.9
2022-08-22T22:41:57.056Z,99.9
2022-08-22T22:43:59.086Z,99.9
2022-08-22T22:46:01.100Z,99.9
2022-08-22T22:48:03.138Z,99.9
2022-08-22T22:50:08.251Z,99.9
2022-08-22T22:52:11.729Z,99.9
2022-08-22T22:54:12.312Z,99.9
2022-08-22T22:59:18.921Z,99.9
2022-08-22T23:03:26.179Z,99.9
2022-08-22T23:05:28.104Z,99.9
2022-08-22T23:15:38.311Z,99.9
2022-08-22T23:17:43.409Z,99.9
2022-08-22T23:21:47.476Z,99.9
2022-08-22T23:23:49.623Z,99.9
2022-08-22T23:25:51.576Z,99.9
2022-08-22T23:27:53.655Z,99.9
2022-08-22T23:34:02.778Z,99.9
2022-08-22T23:36:04.814Z,99.9
2022-08-22T23:38:06.847Z,99.9
2022-08-22T23:40:08.949Z,99.9
2022-08-22T23:42:10.924Z,99.9
2022-08-22T23:44:13.697Z,99.9
2022-08-22T23:46:18.056Z,99.9
2022-08-22T23:48:20.112Z,99.9
2022-08-22T23:50:22.166Z,99.9
2022-08-22T23:52:39.340Z,99.9
2022-08-22T23:54:41.337Z,99.9
2022-08-22T23:56:43.378Z,99.9
2022-08-22T23:58:49.019Z,99.9
